Time;durP1;ratioP1;P1;durP2;ratioP2;P2;SDS_P1;SDS_P2;PMS_P1;PMS_P2;Temp;Humidity;BMP_temperature;BMP_pressure;BME280_temperature;BME280_humidity;BME280_pressure;Samples;Min_cycle;Max_cycle;Signal;HPM_P1;HPM_P2
2021/03/06 00:00:33;;;;;;;68.25;32.83;;;;;;;-3.20;100.00;100082.47;2091094;28;20202;-73
2021/03/06 00:01:59;;;;;;;68.90;33.83;;;;;;;-3.23;100.00;100081.00;2091517;28;20351;-73
2021/03/06 00:03:24;;;;;;;66.13;34.20;;;;;;;-3.20;100.00;100082.47;2091716;28;20179;-73
2021/03/06 00:04:46;;;;;;;64.53;32.97;;;;;;;-3.28;100.00;100091.19;2091494;28;20601;-73
2021/03/06 00:06:12;;;;;;;68.95;34.17;;;;;;;-3.29;100.00;100086.97;2090544;28;20360;-73
2021/03/06 00:07:29;;;;;;;76.07;34.15;;;;;;;-3.26;100.00;100083.19;2085685;28;20199;-73
2021/03/06 00:08:51;;;;;;;72.10;31.60;;;;;;;-3.31;100.00;100072.47;2090092;28;20226;-73
2021/03/06 00:10:08;;;;;;;78.43;32.00;;;;;;;-3.32;100.00;100089.13;2091024;28;20191;-73
2021/03/06 00:11:25;;;;;;;71.72;32.78;;;;;;;-3.31;100.00;100080.28;2091570;28;20229;-73
2021/03/06 00:12:39;;;;;;;73.03;34.92;;;;;;;-3.28;100.00;100093.00;2091644;28;20179;-72
2021/03/06 00:14:00;;;;;;;74.88;34.88;;;;;;;-3.30;100.00;100087.13;2090658;28;20195;-73
2021/03/06 00:15:20;;;;;;;71.03;33.33;;;;;;;-3.27;100.00;100092.81;2092494;28;20195;-73
2021/03/06 00:16:43;;;;;;;78.38;35.95;;;;;;;-3.36;100.00;100087.88;2090528;28;20257;-72
2021/03/06 00:18:10;;;;;;;81.13;33.78;;;;;;;-3.39;100.00;100090.81;2090913;28;20611;-72
2021/03/06 00:19:31;;;;;;;81.15;34.35;;;;;;;-3.35;100.00;100094.69;2090430;28;20207;-73
2021/03/06 00:20:55;;;;;;;71.82;35.10;;;;;;;-3.40;100.00;100092.63;2090979;28;20214;-73
2021/03/06 00:22:12;;;;;;;79.15;35.63;;;;;;;-3.43;100.00;100090.38;2091169;28;20234;-73
2021/03/06 00:23:34;;;;;;;77.80;34.60;;;;;;;-3.39;100.00;100088.22;2091302;28;20187;-73
2021/03/06 00:24:52;;;;;;;75.47;34.38;;;;;;;-3.39;100.00;100083.00;2091222;28;20187;-72
2021/03/06 00:26:18;;;;;;;73.65;33.70;;;;;;;-3.43;100.00;100090.38;2091294;28;20703;-73
2021/03/06 00:27:36;;;;;;;65.20;33.22;;;;;;;-3.53;100.00;100090.66;2089954;28;20202;-74
2021/03/06 00:28:58;;;;;;;77.63;33.75;;;;;;;-3.46;100.00;100094.16;2090033;28;20190;-74
2021/03/06 00:30:15;;;;;;;79.72;34.45;;;;;;;-3.46;100.00;100091.56;2090844;28;20727;-74
2021/03/06 00:31:38;;;;;;;74.82;34.55;;;;;;;-3.44;100.00;100091.38;2089857;28;20191;-72
2021/03/06 00:32:53;;;;;;;70.47;32.42;;;;;;;-3.45;100.00;100085.34;2090387;28;20191;-73
2021/03/06 00:34:22;;;;;;;79.10;35.80;;;;;;;-3.50;100.00;100092.88;2091165;28;20692;-73
2021/03/06 00:35:44;;;;;;;69.93;32.97;;;;;;;-3.62;100.00;100083.91;2091197;28;20658;-73
2021/03/06 00:37:03;;;;;;;76.50;35.55;;;;;;;-3.55;100.00;100092.63;2091178;28;20291;-74
2021/03/06 00:38:30;;;;;;;75.45;33.70;;;;;;;-3.60;100.00;100091.53;2089299;28;20194;-72
2021/03/06 00:39:48;;;;;;;73.18;31.60;;;;;;;-3.55;100.00;100079.59;2090787;28;20195;-72
2021/03/06 00:41:12;;;;;;;70.63;33.38;;;;;;;-3.61;100.00;100085.50;2089978;28;20195;-72
2021/03/06 00:42:31;;;;;;;68.57;32.78;;;;;;;-3.64;100.00;100075.44;2090995;28;20210;-73
2021/03/06 00:43:53;;;;;;;74.63;34.55;;;;;;;-3.65;100.00;100067.78;2091155;28;20178;-73
2021/03/06 00:45:18;;;;;;;75.95;33.92;;;;;;;-3.64;100.00;100075.44;2091057;28;20244;-72
2021/03/06 00:46:35;;;;;;;71.15;32.72;;;;;;;-3.72;100.00;100068.50;2090625;28;20253;-72
2021/03/06 00:47:58;;;;;;;70.50;35.08;;;;;;;-3.66;100.00;100087.03;2084233;28;20712;-74
2021/03/06 00:49:24;;;;;;;64.95;32.05;;;;;;;-3.62;100.00;100083.91;2090712;28;20215;-74
2021/03/06 00:50:50;;;;;;;71.13;32.75;;;;;;;-3.64;100.00;100082.47;2088535;28;20203;-74
2021/03/06 00:52:14;;;;;;;72.55;34.83;;;;;;;-3.69;100.00;100085.59;2090662;28;20201;-74
2021/03/06 00:53:33;;;;;;;72.03;31.75;;;;;;;-3.73;100.00;100072.13;2091291;28;20186;-74
2021/03/06 00:54:55;;;;;;;72.40;32.47;;;;;;;-3.71;100.00;100080.56;2090577;28;20194;-74
2021/03/06 00:56:19;;;;;;;69.80;31.38;;;;;;;-3.63;100.00;100090.09;2083814;28;20230;-74
2021/03/06 00:57:37;;;;;;;68.35;32.72;;;;;;;-3.66;100.00;100081.81;2085205;28;20292;-72
2021/03/06 00:59:01;;;;;;;64.82;32.03;;;;;;;-3.71;100.00;100067.53;2084637;28;20188;-73
2021/03/06 01:00:22;;;;;;;76.40;33.50;;;;;;;-3.69;100.00;100077.78;2091358;28;20201;-73
2021/03/06 01:01:43;;;;;;;70.47;32.75;;;;;;;-3.71;100.00;100083.16;2096278;28;20209;-74
2021/03/06 01:02:58;;;;;;;72.65;34.40;;;;;;;-3.65;100.00;100078.22;2090566;28;20285;-75
2021/03/06 01:04:24;;;;;;;69.63;34.58;;;;;;;-3.67;100.00;100086.22;2090673;28;20633;-74
2021/03/06 01:05:46;;;;;;;77.38;35.08;;;;;;;-3.68;100.00;100073.38;2090875;28;20210;-74
2021/03/06 01:07:06;;;;;;;78.57;36.40;;;;;;;-3.66;100.00;100074.78;2089249;28;20201;-73
2021/03/06 01:08:29;;;;;;;72.20;34.33;;;;;;;-3.60;100.00;100076.69;2090509;28;20194;-74
2021/03/06 01:09:46;;;;;;;71.53;33.88;;;;;;;-3.60;100.00;100074.09;2091001;28;20191;-74
2021/03/06 01:11:07;;;;;;;73.13;33.95;;;;;;;-3.58;100.00;100074.72;2090871;28;20190;-74
2021/03/06 01:12:24;;;;;;;77.90;34.97;;;;;;;-3.70;100.00;100070.94;2089664;28;20199;-73
2021/03/06 01:13:44;;;;;;;72.07;33.00;;;;;;;-3.59;100.00;100088.75;2090508;28;20175;-72
2021/03/06 01:15:02;;;;;;;72.43;35.13;;;;;;;-3.64;100.00;100085.88;2091101;28;20266;-72
2021/03/06 01:16:24;;;;;;;69.18;34.17;;;;;;;-3.64;100.00;100091.09;2091104;28;20183;-74
2021/03/06 01:17:49;;;;;;;77.63;35.80;;;;;;;-3.62;100.00;100089.13;2089981;28;20703;-73
2021/03/06 01:19:05;;;;;;;70.68;35.47;;;;;;;-3.56;100.00;100084.97;2093436;28;20205;-74
2021/03/06 01:20:36;;;;;;;74.70;35.38;;;;;;;-3.59;100.00;100083.53;2096830;28;20182;-73
2021/03/06 01:21:56;;;;;;;83.72;35.72;;;;;;;-3.60;100.00;100092.34;2090617;28;20231;-74
2021/03/06 01:23:12;;;;;;;75.20;33.90;;;;;;;-3.57;100.00;100094.59;2087964;28;20202;-73
2021/03/06 01:24:36;;;;;;;81.22;34.45;;;;;;;-3.64;100.00;100091.09;2090368;28;20316;-72
2021/03/06 01:25:54;;;;;;;75.97;34.05;;;;;;;-3.63;100.00;100086.69;2089239;28;20199;-73
2021/03/06 01:27:19;;;;;;;73.75;34.63;;;;;;;-3.72;100.00;100083.34;2090480;28;20185;-74
2021/03/06 01:28:42;;;;;;;77.22;34.38;;;;;;;-3.91;100.00;100057.78;2089890;28;20226;-74
2021/03/06 01:30:04;;;;;;;76.10;33.60;;;;;;;-3.70;100.00;100102.22;2093143;28;20202;-74
2021/03/06 01:31:25;;;;;;;76.13;33.92;;;;;;;-3.64;100.00;100106.75;2096039;28;20567;-74
2021/03/06 01:32:47;;;;;;;67.07;35.60;;;;;;;-3.66;100.00;100113.91;2090738;28;20563;-73
2021/03/06 01:34:05;;;;;;;74.03;34.25;;;;;;;-3.66;100.00;100102.66;2090862;28;20237;-73
2021/03/06 01:35:33;;;;;;;72.82;34.42;;;;;;;-3.77;100.00;100099.50;2090685;28;20270;-74
2021/03/06 01:36:53;;;;;;;74.57;35.28;;;;;;;-3.74;100.00;100112.19;2089137;28;20206;-73
2021/03/06 01:38:17;;;;;;;80.85;34.97;;;;;;;-3.74;100.00;100108.78;2091730;28;20218;-74
2021/03/06 01:39:36;;;;;;;70.05;33.53;;;;;;;-3.77;100.00;100112.56;2095562;28;20253;-74
2021/03/06 01:40:59;;;;;;;78.20;35.83;;;;;;;-3.78;100.00;100112.72;2089907;28;20704;-72
2021/03/06 01:42:19;;;;;;;76.40;35.78;;;;;;;-3.72;100.00;100118.06;2091848;28;20213;-73
2021/03/06 01:43:42;;;;;;;74.55;35.40;;;;;;;-3.79;100.00;100105.91;2096008;28;20237;-72
2021/03/06 01:45:05;;;;;;;76.45;35.58;;;;;;;-3.74;100.00;100116.59;2090693;28;20175;-72
2021/03/06 01:46:22;;;;;;;82.03;39.15;;;;;;;-3.77;100.00;100109.94;2089864;28;20265;-72
2021/03/06 01:47:45;;;;;;;80.32;37.30;;;;;;;-3.75;100.00;100117.59;2090309;28;20190;-72
2021/03/06 01:49:09;;;;;;;78.72;38.05;;;;;;;-3.79;100.00;100113.72;2090610;28;20195;-73
2021/03/06 01:50:40;;;;;;;74.43;37.33;;;;;;;-3.81;100.00;100121.72;2089839;28;20207;-72
2021/03/06 01:51:59;;;;;;;86.32;37.97;;;;;;;-3.86;100.00;100097.97;2085424;28;20201;-72
2021/03/06 01:53:20;;;;;;;86.43;38.58;;;;;;;-3.85;100.00;100109.22;2090204;28;20228;-73
2021/03/06 01:54:45;;;;;;;89.53;37.85;;;;;;;-3.80;100.00;100114.72;2088968;28;20202;-73
2021/03/06 01:56:04;;;;;;;87.38;37.60;;;;;;;-3.74;100.00;100111.38;2084894;28;20206;-73
2021/03/06 01:57:24;;;;;;;78.57;38.28;;;;;;;-3.80;100.00;100119.94;2090411;28;20186;-73
2021/03/06 01:58:45;;;;;;;89.93;39.08;;;;;;;-3.76;100.00;100118.56;2088773;28;20220;-72
2021/03/06 02:00:00;;;;;;;91.97;38.80;;;;;;;-3.81;100.00;100118.31;2090216;28;20202;-72
2021/03/06 02:01:23;;;;;;;87.10;40.20;;;;;;;-3.83;100.00;100115.03;2090701;28;20260;-73
2021/03/06 02:02:40;;;;;;;90.20;42.08;;;;;;;-3.83;100.00;100123.69;2089095;28;20260;-73
2021/03/06 02:04:07;;;;;;;97.70;43.10;;;;;;;-3.87;100.00;100117.22;2082874;28;20248;-72
2021/03/06 02:05:25;;;;;;;92.95;41.25;;;;;;;-3.85;100.00;100114.41;2090091;28;20665;-72
2021/03/06 02:06:49;;;;;;;100.18;42.95;;;;;;;-3.90;100.00;100120.19;2090591;28;20677;-73
2021/03/06 02:08:08;;;;;;;99.53;42.83;;;;;;;-3.95;100.00;100113.84;2089637;28;20214;-72
2021/03/06 02:09:31;;;;;;;89.65;42.50;;;;;;;-3.90;100.00;100120.19;2090206;28;20210;-73
2021/03/06 02:10:55;;;;;;;90.18;43.50;;;;;;;-3.90;100.00;100114.97;2090657;28;20197;-72
2021/03/06 02:12:22;;;;;;;92.13;44.30;;;;;;;-3.89;100.00;100124.41;2090560;28;20672;-72
2021/03/06 02:14:03;;;;;;;91.43;44.17;;;;;;;-3.89;100.00;100118.38;2090418;28;20347;-72
2021/03/06 02:15:44;;;;;;;102.55;45.88;;;;;;;-3.92;100.00;100119.53;2088567;28;20301;-72
2021/03/06 02:17:09;;;;;;;99.13;44.90;;;;;;;-3.93;100.00;100112.69;2090220;28;20703;-73
2021/03/06 02:18:29;;;;;;;99.63;45.45;;;;;;;-3.96;100.00;100118.25;2090570;28;20175;-72
2021/03/06 02:20:23;;;;;;;103.95;46.35;;;;;;;-4.00;100.00;100117.81;2090555;28;20186;-73
2021/03/06 02:21:55;;;;;;;100.47;44.80;;;;;;;-4.05;100.00;100114.09;2081731;28;20264;-72
2021/03/06 02:23:37;;;;;;;99.40;45.45;;;;;;;-4.04;100.00;100116.53;2084828;28;20195;-72
2021/03/06 02:25:11;;;;;;;98.35;42.67;;;;;;;-3.98;100.00;100130.66;2090151;28;20187;-74
2021/03/06 02:26:56;;;;;;;108.13;48.15;;;;;;;-3.99;100.00;100116.03;2090564;28;20210;-72
2021/03/06 02:28:18;;;;;;;110.55;47.28;;;;;;;-4.02;100.00;100119.75;2090352;28;20215;-75
2021/03/06 02:29:51;;;;;;;108.88;49.58;;;;;;;-3.98;100.00;100117.63;2090587;28;20558;-73
2021/03/06 02:31:13;;;;;;;108.97;49.15;;;;;;;-4.03;100.00;100123.34;2088518;28;20209;-73
2021/03/06 02:32:36;;;;;;;102.70;49.80;;;;;;;-4.02;100.00;100119.75;2084326;28;20202;-76
2021/03/06 02:33:55;;;;;;;97.80;47.90;;;;;;;-3.96;100.00;100126.09;2090234;28;20209;-74
2021/03/06 02:35:21;;;;;;;101.22;46.70;;;;;;;-3.97;100.00;100127.06;2090499;28;20664;-74
2021/03/06 02:36:37;;;;;;;107.53;48.58;;;;;;;-4.08;100.00;100125.69;2088572;28;20223;-74
2021/03/06 02:38:04;;;;;;;103.75;47.75;;;;;;;-4.05;100.00;100125.34;2090139;28;20193;-74
2021/03/06 02:39:21;;;;;;;112.88;49.08;;;;;;;-4.02;100.00;100130.19;2090372;28;20195;-74
2021/03/06 02:40:40;;;;;;;102.55;48.88;;;;;;;-4.05;100.00;100127.94;2090490;28;20194;-74
2021/03/06 02:42:01;;;;;;;112.88;50.35;;;;;;;-4.02;100.00;100121.56;2090463;28;20211;-74
2021/03/06 02:43:24;;;;;;;109.60;50.38;;;;;;;-3.98;100.00;100122.84;2090329;28;20191;-74
2021/03/06 02:44:50;;;;;;;112.68;50.65;;;;;;;-4.00;100.00;100117.81;2089660;28;20256;-73
2021/03/06 02:46:11;;;;;;;115.30;50.90;;;;;;;-3.94;100.00;100125.91;2090108;28;20645;-72
2021/03/06 02:47:36;;;;;;;103.85;48.95;;;;;;;-3.92;100.00;100131.75;2090408;28;20278;-72
2021/03/06 02:48:53;;;;;;;104.40;49.03;;;;;;;-3.88;100.00;100128.63;2090300;28;20216;-73
2021/03/06 02:50:14;;;;;;;115.97;50.85;;;;;;;-3.95;100.00;100134.72;2090335;28;20190;-72
2021/03/06 02:51:39;;;;;;;109.07;51.53;;;;;;;-3.98;100.00;100125.44;2090554;28;20182;-72
2021/03/06 02:53:03;;;;;;;116.20;50.00;;;;;;;-3.99;100.00;100135.06;2090547;28;20171;-73
2021/03/06 02:54:19;;;;;;;110.97;48.63;;;;;;;-4.07;100.00;100132.53;2089412;28;20213;-72
2021/03/06 02:55:41;;;;;;;110.72;50.50;;;;;;;-4.06;100.00;100128.94;2090511;28;20186;-73
2021/03/06 02:57:01;;;;;;;102.13;50.05;;;;;;;-4.05;100.00;100133.16;2092000;28;20187;-71
2021/03/06 02:58:44;;;;;;;112.68;49.83;;;;;;;-4.07;100.00;100132.53;2092013;28;20565;-73
2021/03/06 03:00:20;;;;;;;107.78;50.00;;;;;;;-4.10;100.00;100137.25;2090406;28;20202;-74
2021/03/06 03:01:44;;;;;;;99.95;49.38;;;;;;;-4.22;100.00;100126.44;2094563;28;20206;-74
2021/03/06 03:03:08;;;;;;;116.63;51.70;;;;;;;-4.06;100.00;100134.13;2096858;28;20171;-74
2021/03/06 03:04:34;;;;;;;105.43;52.08;;;;;;;-4.09;100.00;100142.28;2089844;28;20195;-74
2021/03/06 03:06:01;;;;;;;104.57;50.20;;;;;;;-4.04;100.00;100139.97;2091769;28;20178;-74
2021/03/06 03:07:21;;;;;;;102.30;47.83;;;;;;;-4.02;100.00;100142.41;2089328;28;20743;-74
2021/03/06 03:08:45;;;;;;;103.95;48.78;;;;;;;-4.01;100.00;100146.63;2091713;28;20197;-74
2021/03/06 03:10:02;;;;;;;100.93;47.42;;;;;;;-4.06;100.00;100141.16;2091862;28;20221;-72
2021/03/06 03:11:25;;;;;;;107.28;49.90;;;;;;;-4.12;100.00;100144.44;2091074;28;20242;-72
2021/03/06 03:12:49;;;;;;;110.97;50.80;;;;;;;-4.13;100.00;100135.81;2091467;28;20195;-72
2021/03/06 03:14:06;;;;;;;109.85;48.30;;;;;;;-4.10;100.00;100145.06;2092025;28;20179;-72
2021/03/06 03:15:34;;;;;;;97.38;49.20;;;;;;;-4.19;100.00;100128.69;2091800;28;20273;-73
2021/03/06 03:16:56;;;;;;;107.72;50.88;;;;;;;-4.09;100.00;100137.06;2091075;28;20195;-72
2021/03/06 03:18:25;;;;;;;105.95;48.33;;;;;;;-4.04;100.00;100142.59;2091546;28;20179;-72
2021/03/06 03:19:47;;;;;;;109.35;49.72;;;;;;;-4.06;100.00;100136.75;2091802;28;20195;-72
2021/03/06 03:21:08;;;;;;;107.57;48.78;;;;;;;-4.13;100.00;100148.84;2090933;28;20206;-72
2021/03/06 03:22:27;;;;;;;94.22;47.08;;;;;;;-4.08;100.00;100138.72;2091320;28;20684;-73
2021/03/06 03:23:52;;;;;;;107.45;47.92;;;;;;;-4.07;100.00;100150.75;2091645;28;20198;-73
2021/03/06 03:25:13;;;;;;;102.32;46.80;;;;;;;-4.15;100.00;100142.19;2090023;28;20294;-72
2021/03/06 03:26:36;;;;;;;104.35;47.95;;;;;;;-4.04;100.00;100154.81;2091195;28;20226;-72
2021/03/06 03:27:58;;;;;;;112.45;47.35;;;;;;;-4.08;100.00;100156.97;2089831;28;20379;-72
2021/03/06 03:29:17;;;;;;;104.55;47.35;;;;;;;-4.09;100.00;100157.13;2091635;28;20181;-73
2021/03/06 03:30:45;;;;;;;98.22;47.33;;;;;;;-4.10;100.00;100160.72;2091882;28;20217;-73
2021/03/06 03:32:01;;;;;;;101.45;47.63;;;;;;;-4.12;100.00;100168.69;2091911;28;20262;-73
2021/03/06 03:33:23;;;;;;;97.95;48.05;;;;;;;-4.14;100.00;100168.06;2090004;28;20198;-72
2021/03/06 03:34:40;;;;;;;101.07;47.67;;;;;;;-4.15;100.00;100157.84;2090015;28;20230;-74
2021/03/06 03:36:03;;;;;;;111.50;50.38;;;;;;;-4.05;100.00;100166.22;2091235;28;20657;-74
2021/03/06 03:37:21;;;;;;;98.75;47.50;;;;;;;-4.05;100.00;100169.63;2091721;28;20661;-72
2021/03/06 03:38:42;;;;;;;101.63;48.85;;;;;;;-4.07;100.00;100163.00;2091656;28;20256;-75
2021/03/06 03:40:01;;;;;;;97.10;48.35;;;;;;;-4.17;100.00;100157.16;2091817;28;20653;-73
2021/03/06 03:41:23;;;;;;;92.53;46.67;;;;;;;-4.12;100.00;100170.50;2091583;28;20183;-73
2021/03/06 03:42:43;;;;;;;96.85;47.40;;;;;;;-4.14;100.00;100178.50;2090045;28;20225;-72
2021/03/06 03:44:07;;;;;;;94.20;48.17;;;;;;;-4.17;100.00;100160.63;2091207;28;20262;-72
2021/03/06 03:45:30;;;;;;;103.45;47.45;;;;;;;-4.17;100.00;100163.22;2091870;28;20186;-72
2021/03/06 03:46:52;;;;;;;88.18;42.83;;;;;;;-4.12;100.00;100171.31;2091573;28;20195;-73
2021/03/06 03:48:15;;;;;;;101.28;47.22;;;;;;;-4.19;100.00;100165.16;2091833;28;20181;-72
2021/03/06 03:49:39;;;;;;;95.50;46.80;;;;;;;-4.22;100.00;100178.53;2091540;28;20219;-72
2021/03/06 03:50:57;;;;;;;99.28;44.65;;;;;;;-4.20;100.00;100180.97;2089855;28;20650;-72
2021/03/06 03:52:18;;;;;;;96.78;44.90;;;;;;;-4.18;100.00;100172.00;2091095;28;20210;-74
2021/03/06 03:53:35;;;;;;;101.65;45.00;;;;;;;-4.17;100.00;100173.63;2091565;28;20557;-74
2021/03/06 03:54:55;;;;;;;98.75;45.67;;;;;;;-4.17;100.00;100184.06;2091631;28;20183;-74
2021/03/06 03:56:18;;;;;;;91.97;45.80;;;;;;;-4.22;100.00;100185.56;2091711;28;20182;-72
2021/03/06 03:57:48;;;;;;;101.85;43.80;;;;;;;-4.22;100.00;100181.16;2091479;28;20198;-72
2021/03/06 03:59:03;;;;;;;94.47;44.53;;;;;;;-4.20;100.00;100181.78;2091098;28;20205;-73
2021/03/06 04:00:25;;;;;;;100.22;44.55;;;;;;;-4.16;100.00;100184.88;2091015;28;20189;-72
2021/03/06 04:01:57;;;;;;;99.25;43.75;;;;;;;-4.24;100.00;100172.72;2091668;28;20240;-74
2021/03/06 04:03:16;;;;;;;101.25;46.03;;;;;;;-4.24;100.00;100172.72;2089846;28;20225;-73
2021/03/06 04:04:47;;;;;;;90.75;44.65;;;;;;;-4.20;100.00;100183.59;2092020;28;20597;-73
2021/03/06 04:06:10;;;;;;;90.40;43.72;;;;;;;-4.30;100.00;100181.19;2095284;28;20195;-73
2021/03/06 04:07:33;;;;;;;99.05;45.63;;;;;;;-4.30;100.00;100189.00;2090902;28;20201;-72
2021/03/06 04:08:52;;;;;;;105.18;44.55;;;;;;;-4.28;100.00;100187.03;2089962;28;20616;-73
2021/03/06 04:10:12;;;;;;;93.15;45.60;;;;;;;-4.33;100.00;100184.16;2090974;28;20214;-72
2021/03/06 04:11:35;;;;;;;96.43;44.55;;;;;;;-4.35;100.00;100184.31;2089674;28;20231;-74
2021/03/06 04:12:56;;;;;;;96.63;45.92;;;;;;;-4.37;100.00;100183.66;2085255;28;20207;-73
2021/03/06 04:14:15;;;;;;;108.93;47.33;;;;;;;-4.36;100.00;100189.69;2091183;28;20709;-72
2021/03/06 04:15:38;;;;;;;98.72;44.15;;;;;;;-4.30;100.00;100189.00;2091498;28;20654;-72
2021/03/06 04:17:01;;;;;;;93.65;45.38;;;;;;;-4.28;100.00;100189.66;2090915;28;20558;-73
2021/03/06 04:18:22;;;;;;;102.22;46.40;;;;;;;-4.26;100.00;100187.66;2091059;28;20558;-72
2021/03/06 04:19:48;;;;;;;94.57;45.17;;;;;;;-4.44;100.00;100164.50;2091427;28;20191;-73
2021/03/06 04:21:07;;;;;;;95.13;44.42;;;;;;;-4.36;100.00;100184.47;2091440;28;20322;-73
2021/03/06 04:22:29;;;;;;;95.00;45.72;;;;;;;-4.39;100.00;100174.41;2091322;28;20203;-73
2021/03/06 04:23:51;;;;;;;98.20;45.42;;;;;;;-4.40;100.00;100188.44;2091305;28;20167;-73
2021/03/06 04:25:12;;;;;;;94.10;47.75;;;;;;;-4.40;100.00;100184.03;2089079;28;20241;-73
2021/03/06 04:26:42;;;;;;;92.22;45.58;;;;;;;-4.44;100.00;100181.91;2090939;28;20211;-73
2021/03/06 04:28:06;;;;;;;91.38;43.60;;;;;;;-4.48;100.00;100186.66;2091314;28;20282;-72
2021/03/06 04:29:25;;;;;;;92.85;44.58;;;;;;;-4.44;100.00;100187.13;2091381;28;20186;-72
2021/03/06 04:30:48;;;;;;;90.32;44.95;;;;;;;-4.40;100.00;100193.63;2089368;28;20282;-73
2021/03/06 04:32:11;;;;;;;98.93;46.78;;;;;;;-4.38;100.00;100191.66;2091071;28;20187;-73
2021/03/06 04:33:30;;;;;;;96.22;46.42;;;;;;;-4.43;100.00;100189.59;2091184;28;20191;-73
2021/03/06 04:34:45;;;;;;;91.13;45.95;;;;;;;-4.50;100.00;100186.03;2091286;28;20274;-73
2021/03/06 04:36:08;;;;;;;101.82;46.90;;;;;;;-4.56;100.00;100195.31;2089450;28;20245;-73
2021/03/06 04:37:34;;;;;;;90.32;44.08;;;;;;;-4.51;100.00;100197.44;2091022;28;20183;-74
2021/03/06 04:38:56;;;;;;;92.35;43.88;;;;;;;-4.53;100.00;100199.38;2091144;28;20653;-72
2021/03/06 04:40:17;;;;;;;91.65;45.20;;;;;;;-4.57;100.00;100206.72;2091144;28;20198;-73
2021/03/06 04:41:34;;;;;;;97.53;43.10;;;;;;;-4.55;100.00;100201.34;2091091;28;20194;-72
2021/03/06 04:42:56;;;;;;;92.97;43.08;;;;;;;-4.49;100.00;100208.50;2091315;28;20273;-72
2021/03/06 04:44:14;;;;;;;87.35;43.30;;;;;;;-4.63;100.00;100194.38;2090407;28;20195;-72
2021/03/06 04:45:34;;;;;;;93.78;45.70;;;;;;;-4.54;100.00;100215.97;2083802;28;20219;-72
2021/03/06 04:46:54;;;;;;;89.75;44.80;;;;;;;-4.58;100.00;100210.31;2090683;28;20221;-73
2021/03/06 04:48:28;;;;;;;92.03;45.13;;;;;;;-4.68;100.00;100204.50;2090278;28;20201;-72
2021/03/06 04:49:49;;;;;;;83.38;42.88;;;;;;;-4.61;100.00;100213.25;2094968;28;20194;-72
2021/03/06 04:51:08;;;;;;;89.25;46.22;;;;;;;-4.57;100.00;100214.53;2090448;28;20191;-72
2021/03/06 04:52:35;;;;;;;87.15;45.28;;;;;;;-4.57;100.00;100209.34;2084763;28;20727;-73
2021/03/06 04:53:58;;;;;;;91.65;45.53;;;;;;;-4.55;100.00;100214.38;2093568;28;20594;-72
2021/03/06 04:55:20;;;;;;;89.32;45.85;;;;;;;-4.55;100.00;100220.38;2096056;28;20254;-73
2021/03/06 04:56:44;;;;;;;95.80;45.72;;;;;;;-4.52;100.00;100215.81;2091168;28;20189;-72
2021/03/06 04:58:09;;;;;;;89.03;44.60;;;;;;;-4.46;100.00;100225.56;2098740;28;20202;-72
2021/03/06 04:59:28;;;;;;;79.43;42.72;;;;;;;-4.53;100.00;100228.03;2090380;28;20207;-72
2021/03/06 05:00:50;;;;;;;90.28;45.78;;;;;;;-4.51;100.00;100222.66;2084236;28;20626;-73
2021/03/06 05:02:10;;;;;;;85.35;45.08;;;;;;;-4.43;100.00;100223.44;2084098;28;20673;-73
2021/03/06 05:03:38;;;;;;;93.68;45.85;;;;;;;-4.53;100.00;100227.22;2083063;28;20238;-72
2021/03/06 05:04:57;;;;;;;92.57;44.78;;;;;;;-4.63;100.00;100225.63;2085994;28;20201;-72
2021/03/06 05:06:22;;;;;;;87.18;45.63;;;;;;;-4.61;100.00;100228.84;2090696;28;20660;-73
2021/03/06 05:07:46;;;;;;;97.15;46.53;;;;;;;-4.54;100.00;100226.41;2091121;28;20171;-73
2021/03/06 05:09:03;;;;;;;86.25;45.60;;;;;;;-4.50;100.00;100232.91;2090982;28;20236;-72
2021/03/06 05:10:25;;;;;;;86.70;46.50;;;;;;;-4.45;100.00;100232.38;2091173;28;20258;-73
2021/03/06 05:11:42;;;;;;;91.43;44.80;;;;;;;-4.48;100.00;100228.34;2091221;28;20183;-73
2021/03/06 05:13:04;;;;;;;89.68;44.83;;;;;;;-4.58;100.00;100223.34;2089222;28;20206;-73
2021/03/06 05:14:26;;;;;;;89.68;45.05;;;;;;;-4.49;100.00;100236.31;2083847;28;20248;-73
2021/03/06 05:15:46;;;;;;;84.03;45.90;;;;;;;-4.56;100.00;100231.78;2084345;28;20209;-73
2021/03/06 05:17:02;;;;;;;88.38;44.97;;;;;;;-4.55;100.00;100233.41;2083589;28;20686;-73
2021/03/06 05:18:22;;;;;;;90.07;44.30;;;;;;;-4.62;100.00;100219.44;2090651;28;20225;-73
2021/03/06 05:19:44;;;;;;;90.32;43.70;;;;;;;-4.48;100.00;100236.16;2090978;28;20630;-73
2021/03/06 05:21:06;;;;;;;83.65;41.70;;;;;;;-4.47;100.00;100235.16;2089142;28;20259;-73
2021/03/06 05:22:29;;;;;;;91.43;47.70;;;;;;;-4.50;100.00;100235.50;2090357;28;20276;-73
2021/03/06 05:23:54;;;;;;;94.80;44.83;;;;;;;-4.53;100.00;100235.03;2090824;28;20225;-73
2021/03/06 05:25:13;;;;;;;96.75;46.90;;;;;;;-4.60;100.00;100240.13;2091130;28;20195;-73
2021/03/06 05:26:43;;;;;;;89.50;46.63;;;;;;;-4.50;100.00;100242.50;2090748;28;20198;-73
2021/03/06 05:28:09;;;;;;;88.32;46.10;;;;;;;-4.47;100.00;100245.59;2090885;28;20200;-73
2021/03/06 05:29:28;;;;;;;88.50;46.58;;;;;;;-4.51;100.00;100241.72;2090809;28;20194;-73
2021/03/06 05:30:50;;;;;;;89.18;45.85;;;;;;;-4.55;100.00;100243.81;2090285;28;20202;-73
2021/03/06 05:32:06;;;;;;;86.00;45.55;;;;;;;-4.53;100.00;100237.63;2090399;28;20219;-73
2021/03/06 05:33:27;;;;;;;91.53;47.15;;;;;;;-4.66;100.00;100238.19;2091043;28;20740;-74
2021/03/06 05:34:57;;;;;;;88.57;45.33;;;;;;;-4.59;100.00;100246.94;2090717;28;20195;-74
2021/03/06 05:36:25;;;;;;;89.88;43.65;;;;;;;-4.51;100.00;100248.72;2090789;28;20198;-72
2021/03/06 05:37:48;;;;;;;88.78;44.63;;;;;;;-4.52;100.00;100244.44;2089228;28;20230;-73
2021/03/06 05:39:07;;;;;;;82.78;44.90;;;;;;;-4.52;100.00;100247.88;2083764;28;20194;-73
2021/03/06 05:40:31;;;;;;;83.28;45.10;;;;;;;-4.58;100.00;100238.97;2090311;28;20175;-72
2021/03/06 05:41:49;;;;;;;87.78;46.45;;;;;;;-4.60;100.00;100235.72;2090709;28;20281;-73
2021/03/06 05:43:13;;;;;;;89.93;44.83;;;;;;;-4.48;100.00;100253.56;2090761;28;20197;-73
2021/03/06 05:44:31;;;;;;;87.10;46.30;;;;;;;-4.44;100.00;100263.47;2090937;28;20285;-73
2021/03/06 05:45:58;;;;;;;81.68;42.90;;;;;;;-4.48;100.00;100250.97;2090875;28;20190;-73
2021/03/06 05:47:16;;;;;;;91.75;46.45;;;;;;;-4.45;100.00;100259.25;2090616;28;20236;-73
2021/03/06 05:48:37;;;;;;;82.13;45.65;;;;;;;-4.45;100.00;100264.44;2090710;28;20241;-73
2021/03/06 05:50:10;;;;;;;83.25;46.40;;;;;;;-4.44;100.00;100260.06;2088994;28;20331;-74
2021/03/06 05:51:34;;;;;;;89.03;46.38;;;;;;;-4.46;100.00;100272.44;2085982;28;20588;-73
2021/03/06 05:52:56;;;;;;;86.25;44.97;;;;;;;-4.38;100.00;100269.81;2082405;28;20217;-72
2021/03/06 05:54:19;;;;;;;84.20;43.35;;;;;;;-4.34;100.00;100277.13;2085111;28;20203;-72
2021/03/06 05:55:39;;;;;;;89.93;44.80;;;;;;;-4.32;100.00;100279.56;2082983;28;20204;-73
2021/03/06 05:57:02;;;;;;;95.15;46.05;;;;;;;-4.39;100.00;100271.59;2090217;28;20194;-73
2021/03/06 05:58:20;;;;;;;90.97;45.85;;;;;;;-4.36;100.00;100273.84;2090548;28;20187;-74
2021/03/06 05:59:47;;;;;;;94.97;46.35;;;;;;;-4.37;100.00;100271.41;2089679;28;20223;-74
2021/03/06 06:01:12;;;;;;;86.63;46.75;;;;;;;-4.31;100.00;100275.97;2083165;28;20672;-74
2021/03/06 06:02:30;;;;;;;88.97;46.28;;;;;;;-4.37;100.00;100268.81;2090162;28;20684;-74
2021/03/06 06:03:50;;;;;;;91.75;46.80;;;;;;;-4.27;100.00;100282.44;2089358;28;20637;-74
2021/03/06 06:05:19;;;;;;;87.80;45.55;;;;;;;-4.27;100.00;100282.44;2090078;28;20198;-74
2021/03/06 06:06:45;;;;;;;80.57;45.63;;;;;;;-4.22;100.00;100284.56;2090693;28;20199;-73
2021/03/06 06:07:59;;;;;;;86.97;46.30;;;;;;;-4.23;100.00;100288.97;2089834;28;20210;-74
2021/03/06 06:09:15;;;;;;;83.60;45.50;;;;;;;-4.13;100.00;100294.78;2090003;28;20178;-74